createdAt,value
2023-04-21T00:00:30.474Z,22.77
2023-04-21T00:03:20.253Z,19.38
2023-04-21T00:05:48.726Z,19.70
2023-04-21T00:08:16.653Z,19.23
2023-04-21T00:10:44.832Z,17.10
2023-04-21T00:13:12.292Z,15.25
2023-04-21T00:15:40.178Z,16.05
2023-04-21T00:18:07.565Z,25.20
2023-04-21T00:20:35.459Z,16.40
2023-04-21T00:23:03.713Z,16.52
2023-04-21T00:25:31.254Z,22.05
2023-04-21T00:27:58.523Z,24.25
2023-04-21T00:30:26.256Z,20.45
2023-04-21T00:32:53.517Z,22.95
2023-04-21T00:35:23.180Z,16.10
2023-04-21T00:37:50.399Z,27.02
2023-04-21T00:40:17.953Z,19.70
2023-04-21T00:42:45.219Z,23.17
2023-04-21T00:45:14.804Z,25.08
2023-04-21T00:47:42.878Z,25.73
2023-04-21T00:50:12.636Z,22.40
2023-04-21T00:52:41.157Z,18.08
2023-04-21T00:55:09.351Z,22.48
2023-04-21T00:57:38.015Z,20.75
2023-04-21T01:00:06.505Z,21.40
2023-04-21T01:02:36.344Z,18.08
2023-04-21T01:05:09.080Z,19.10
2023-04-21T01:07:39.164Z,15.45
2023-04-21T01:10:07.588Z,15.68
2023-04-21T01:12:43.623Z,17.17
2023-04-21T01:15:12.768Z,22.10
2023-04-21T01:17:40.525Z,24.40
2023-04-21T01:20:10.795Z,17.55
2023-04-21T01:22:39.598Z,20.13
2023-04-21T01:25:07.600Z,19.55
2023-04-21T01:27:36.907Z,17.13
2023-04-21T01:30:06.201Z,17.42
2023-04-21T01:32:33.686Z,17.05
2023-04-21T01:35:01.840Z,14.93
2023-04-21T01:37:33.984Z,16.50
2023-04-21T01:40:05.426Z,22.55
2023-04-21T01:42:35.467Z,20.27
2023-04-21T01:45:03.776Z,31.98
2023-04-21T01:47:32.301Z,16.05
2023-04-21T01:49:59.855Z,24.40
2023-04-21T01:52:27.127Z,18.92
2023-04-21T01:54:55.207Z,20.10
2023-04-21T01:57:22.518Z,23.95
2023-04-21T01:59:51.738Z,18.75
2023-04-21T02:02:19.052Z,20.48
2023-04-21T02:04:46.664Z,16.30
2023-04-21T02:07:13.971Z,16.48
2023-04-21T02:09:42.780Z,18.23
2023-04-21T02:12:10.467Z,20.33
2023-04-21T02:14:38.835Z,20.58
2023-04-21T02:17:08.054Z,20.05
2023-04-21T02:19:36.084Z,14.60
2023-04-21T02:22:04.117Z,15.63
2023-04-21T02:24:31.606Z,16.38
2023-04-21T02:26:58.933Z,27.80
2023-04-21T02:29:29.215Z,20.60
2023-04-21T02:32:05.283Z,22.63
2023-04-21T02:34:42.206Z,22.10
2023-04-21T02:37:11.427Z,19.17
2023-04-21T02:39:38.963Z,16.55
2023-04-21T02:42:06.248Z,20.27
2023-04-21T02:44:33.679Z,22.77
2023-04-21T02:47:01.087Z,18.17
2023-04-21T02:49:28.585Z,20.40
2023-04-21T02:51:58.592Z,21.83
2023-04-21T02:54:26.118Z,17.45
2023-04-21T02:56:53.341Z,23.30
2023-04-21T02:59:20.999Z,16.40
2023-04-21T03:01:49.397Z,19.38
2023-04-21T03:04:17.405Z,14.98
2023-04-21T03:06:44.964Z,17.90
2023-04-21T03:09:13.217Z,20.70
2023-04-21T03:11:40.504Z,18.50
2023-04-21T03:14:07.975Z,19.20
2023-04-21T03:16:35.296Z,15.90
2023-04-21T03:19:02.772Z,22.42
2023-04-21T03:21:30.129Z,21.55
2023-04-21T03:23:57.656Z,19.50
2023-04-21T03:26:25.217Z,22.83
2023-04-21T03:28:52.832Z,21.10
2023-04-21T03:31:20.168Z,22.10
2023-04-21T03:33:47.609Z,23.25
2023-04-21T03:36:16.073Z,23.05
2023-04-21T03:38:43.654Z,19.73
2023-04-21T03:41:10.937Z,22.50
2023-04-21T03:43:38.639Z,32.80
2023-04-21T03:46:07.575Z,23.98
2023-04-21T03:48:35.128Z,29.98
2023-04-21T03:51:02.298Z,24.15
2023-04-21T03:53:30.170Z,21.73
2023-04-21T03:55:57.451Z,30.83
2023-04-21T03:58:24.987Z,19.33
2023-04-21T04:00:52.357Z,21.40
2023-04-21T04:03:22.772Z,16.73
2023-04-21T04:05:50.738Z,19.77
2023-04-21T04:08:18.509Z,17.58
2023-04-21T04:10:45.891Z,22.92
2023-04-21T04:13:13.407Z,18.70
2023-04-21T04:15:40.866Z,18.92
2023-04-21T04:18:08.412Z,26.42
2023-04-21T04:20:36.635Z,22.85
2023-04-21T04:23:04.521Z,27.58
2023-04-21T04:25:31.846Z,31.13
2023-04-21T04:27:59.775Z,33.83
2023-04-21T04:30:30.205Z,24.48
2023-04-21T04:32:58.098Z,23.52
2023-04-21T04:35:25.454Z,26.27
2023-04-21T04:37:54.787Z,22.38
2023-04-21T04:40:22.538Z,36.50
2023-04-21T04:42:51.533Z,21.95
2023-04-21T04:45:21.401Z,21.60
2023-04-21T04:47:50.117Z,25.38
2023-04-21T04:50:17.772Z,20.25
2023-04-21T04:52:47.126Z,30.90
2023-04-21T04:55:14.549Z,20.92
2023-04-21T04:57:42.038Z,27.73
2023-04-21T05:00:11.510Z,27.10
2023-04-21T05:02:39.402Z,20.02
2023-04-21T05:05:08.171Z,25.17
2023-04-21T05:07:36.016Z,21.25
2023-04-21T05:10:04.627Z,18.88
2023-04-21T05:12:32.622Z,22.13
2023-04-21T05:15:00.003Z,17.27
2023-04-21T05:17:28.740Z,17.95
2023-04-21T05:19:56.375Z,21.35
2023-04-21T05:22:24.029Z,23.92
2023-04-21T05:24:51.413Z,22.08
2023-04-21T05:27:18.987Z,25.38
2023-04-21T05:29:46.389Z,22.23
2023-04-21T05:32:14.436Z,21.60
2023-04-21T05:34:41.692Z,17.33
2023-04-21T05:37:11.744Z,17.17
2023-04-21T05:39:38.984Z,13.63
2023-04-21T05:42:09.398Z,24.33
2023-04-21T05:44:37.120Z,14.88
2023-04-21T05:47:06.352Z,16.02
2023-04-21T05:49:33.967Z,25.48
2023-04-21T05:52:01.414Z,22.90
2023-04-21T05:54:28.593Z,20.67
2023-04-21T05:56:56.981Z,18.95
2023-04-21T05:59:26.413Z,17.52
2023-04-21T06:01:54.585Z,12.93
2023-04-21T06:04:32.904Z,17.88
2023-04-21T06:07:10.465Z,20.08
2023-04-21T06:09:38.326Z,26.58
2023-04-21T06:12:06.358Z,19.40
2023-04-21T06:14:33.544Z,22.17
2023-04-21T06:17:01.125Z,20.45
2023-04-21T06:19:28.406Z,13.95
2023-04-21T06:21:57.487Z,17.50
2023-04-21T06:24:25.673Z,29.98
2023-04-21T06:26:53.581Z,20.10
2023-04-21T06:29:21.032Z,18.83
2023-04-21T06:31:48.771Z,16.88
2023-04-21T06:34:16.234Z,17.38
2023-04-21T06:36:43.967Z,21.10
2023-04-21T06:39:11.536Z,16.25
2023-04-21T06:41:38.950Z,23.02
2023-04-21T06:44:06.287Z,15.77
2023-04-21T06:46:33.803Z,17.83
2023-04-21T06:49:01.229Z,19.75
2023-04-21T06:51:28.737Z,19.00
2023-04-21T06:53:55.988Z,13.80
2023-04-21T06:56:23.452Z,11.27
2023-04-21T06:58:51.149Z,27.63
2023-04-21T07:01:18.723Z,16.50
2023-04-21T07:03:46.604Z,20.95
2023-04-21T07:06:14.229Z,14.27
2023-04-21T07:08:41.656Z,17.95
2023-04-21T07:11:09.248Z,14.57
2023-04-21T07:13:36.446Z,18.38
2023-04-21T07:16:08.089Z,16.88
2023-04-21T07:18:35.458Z,15.73
2023-04-21T07:21:03.072Z,16.27
2023-04-21T07:23:30.636Z,15.75
2023-04-21T07:25:59.065Z,15.23
2023-04-21T07:28:26.703Z,34.97
2023-04-21T07:30:54.427Z,13.30
2023-04-21T07:33:21.659Z,14.75
2023-04-21T07:35:49.539Z,10.35
2023-04-21T07:38:18.045Z,10.52
2023-04-21T07:40:45.525Z,20.63
2023-04-21T07:43:13.114Z,12.18
2023-04-21T07:45:41.394Z,11.27
2023-04-21T07:48:09.136Z,12.10
2023-04-21T07:50:37.213Z,12.82
2023-04-21T07:53:05.392Z,11.13
2023-04-21T07:55:33.484Z,7.07
2023-04-21T07:58:01.170Z,8.40
2023-04-21T08:00:29.097Z,10.23
2023-04-21T08:02:56.865Z,10.60
2023-04-21T08:05:27.959Z,11.40
2023-04-21T08:07:58.012Z,5.68
2023-04-21T08:10:26.041Z,10.63
2023-04-21T08:12:53.937Z,15.65
2023-04-21T08:15:22.301Z,8.50
2023-04-21T08:17:50.325Z,10.10
2023-04-21T08:20:18.360Z,8.30
2023-04-21T08:22:48.294Z,14.32
2023-04-21T08:25:16.640Z,10.18
2023-04-21T08:27:44.453Z,8.85
2023-04-21T08:30:12.659Z,8.57
2023-04-21T08:32:40.765Z,10.82
2023-04-21T08:35:09.133Z,13.70
2023-04-21T08:37:37.857Z,8.68
2023-04-21T08:40:06.830Z,8.95
2023-04-21T08:42:34.987Z,9.93
2023-04-21T08:45:03.536Z,9.85
2023-04-21T08:47:32.882Z,6.45
2023-04-21T08:50:00.925Z,9.63
2023-04-21T08:52:28.570Z,5.00
2023-04-21T08:54:57.201Z,6.20
2023-04-21T08:57:25.145Z,8.85
2023-04-21T08:59:53.033Z,9.55
2023-04-21T09:02:20.732Z,13.98
2023-04-21T09:04:51.444Z,6.13
2023-04-21T09:07:32.828Z,12.50
2023-04-21T09:10:01.024Z,8.27
2023-04-21T09:12:29.294Z,11.02
2023-04-21T09:15:01.058Z,8.48
2023-04-21T09:17:33.848Z,9.68
2023-04-21T09:20:21.608Z,4.70
2023-04-21T09:22:51.397Z,5.32
2023-04-21T09:25:23.015Z,7.95
2023-04-21T09:27:51.132Z,10.10
2023-04-21T09:30:22.827Z,8.82
2023-04-21T09:32:50.860Z,9.48
2023-04-21T09:35:18.884Z,7.50
2023-04-21T09:37:46.608Z,7.82
2023-04-21T09:40:15.473Z,9.88
2023-04-21T09:42:44.879Z,5.85
2023-04-21T09:47:47.750Z,6.13
2023-04-21T09:50:16.418Z,9.32
2023-04-21T09:52:48.324Z,4.50
2023-04-21T09:55:17.223Z,5.28
2023-04-21T09:57:45.849Z,7.35
2023-04-21T10:00:14.289Z,5.25
2023-04-21T10:02:44.750Z,12.95
2023-04-21T10:05:13.364Z,12.27
2023-04-21T10:07:41.244Z,5.75
2023-04-21T10:10:11.773Z,10.00
2023-04-21T10:12:40.191Z,6.00
2023-04-21T10:15:28.461Z,6.00
2023-04-21T10:18:11.669Z,8.70
2023-04-21T10:20:51.794Z,5.10
2023-04-21T10:23:28.288Z,4.32
2023-04-21T10:26:02.421Z,6.13
2023-04-21T10:28:40.961Z,4.35
2023-04-21T10:31:22.285Z,9.05
2023-04-21T10:34:14.072Z,8.68
2023-04-21T10:36:53.035Z,24.08
2023-04-21T10:39:31.479Z,6.97
2023-04-21T10:42:19.795Z,5.03
2023-04-21T10:44:59.911Z,9.18
2023-04-21T10:47:31.900Z,5.97
2023-04-21T10:50:00.742Z,7.97
2023-04-21T10:52:34.532Z,5.63
2023-04-21T10:55:02.053Z,8.43
2023-04-21T10:57:32.780Z,5.97
2023-04-21T11:00:00.855Z,6.97
2023-04-21T11:02:28.979Z,3.08
2023-04-21T11:04:57.248Z,8.95
2023-04-21T11:07:26.966Z,5.78
2023-04-21T11:10:01.850Z,4.15
2023-04-21T11:12:31.181Z,6.25
2023-04-21T11:14:59.097Z,2.75
2023-04-21T11:17:27.284Z,2.60
2023-04-21T11:19:55.925Z,10.15
2023-04-21T11:22:25.110Z,3.38
2023-04-21T11:24:55.422Z,9.68
2023-04-21T11:27:23.799Z,3.33
2023-04-21T11:29:51.862Z,3.00
2023-04-21T11:32:19.885Z,7.72
2023-04-21T11:34:47.682Z,4.57
2023-04-21T11:37:16.925Z,2.95
2023-04-21T11:39:44.828Z,4.90
2023-04-21T11:42:12.759Z,11.82
2023-04-21T11:44:41.865Z,4.20
2023-04-21T11:47:24.986Z,4.53
2023-04-21T11:49:57.059Z,5.50
2023-04-21T11:52:26.234Z,7.07
2023-04-21T11:54:59.042Z,5.63
2023-04-21T11:57:27.912Z,5.78
2023-04-21T11:59:56.005Z,5.10
2023-04-21T12:02:25.693Z,6.35
2023-04-21T12:05:00.320Z,4.93
2023-04-21T12:07:30.016Z,4.13
2023-04-21T12:09:57.795Z,6.00
2023-04-21T12:12:25.849Z,4.07
2023-04-21T12:14:53.887Z,12.95
2023-04-21T12:17:22.389Z,5.43
2023-04-21T12:19:50.609Z,7.95
2023-04-21T12:22:19.606Z,6.90
2023-04-21T12:24:47.493Z,4.30
2023-04-21T12:27:15.484Z,6.85
2023-04-21T12:29:43.332Z,6.82
2023-04-21T12:32:11.454Z,5.00
2023-04-21T12:34:39.390Z,4.35
2023-04-21T12:37:07.928Z,6.15
2023-04-21T12:39:35.640Z,6.57
2023-04-21T12:42:03.636Z,2.95
2023-04-21T12:44:31.412Z,12.73
2023-04-21T12:46:59.425Z,8.18
2023-04-21T12:49:27.503Z,6.80
2023-04-21T12:51:56.130Z,5.18
2023-04-21T12:54:24.216Z,7.30
2023-04-21T12:56:52.076Z,6.82
2023-04-21T12:59:19.678Z,6.60
2023-04-21T13:01:47.708Z,13.02
2023-04-21T13:04:15.704Z,3.97
2023-04-21T13:06:43.746Z,10.75
2023-04-21T13:09:11.504Z,3.28
2023-04-21T13:11:39.907Z,2.33
2023-04-21T13:14:07.801Z,6.32
2023-04-21T13:16:35.876Z,2.75
2023-04-21T13:19:04.386Z,7.70
2023-04-21T13:21:32.793Z,7.15
2023-04-21T13:24:02.529Z,2.70
2023-04-21T13:26:36.266Z,3.53
2023-04-21T13:29:04.323Z,13.00
2023-04-21T13:31:32.635Z,10.07
2023-04-21T13:34:01.802Z,3.70
2023-04-21T13:36:31.581Z,7.40
2023-04-21T13:39:00.756Z,5.07
2023-04-21T13:41:28.769Z,3.40
2023-04-21T13:43:56.617Z,7.15
2023-04-21T13:46:25.307Z,3.85
2023-04-21T13:48:53.210Z,3.65
2023-04-21T13:51:21.190Z,5.38
2023-04-21T13:53:49.230Z,5.22
2023-04-21T13:56:17.825Z,8.50
2023-04-21T13:58:46.001Z,18.92
2023-04-21T14:01:14.694Z,4.88
2023-04-21T14:03:42.958Z,5.50
2023-04-21T14:06:11.376Z,6.07
2023-04-21T14:08:39.056Z,6.72
2023-04-21T14:11:07.227Z,5.00
2023-04-21T14:13:39.805Z,11.80
2023-04-21T14:16:16.591Z,5.20
2023-04-21T14:18:45.887Z,3.50
2023-04-21T14:21:13.764Z,2.38
2023-04-21T14:23:41.518Z,3.78
2023-04-21T14:26:09.658Z,6.47
2023-04-21T14:28:37.576Z,2.05
2023-04-21T14:31:05.708Z,5.30
2023-04-21T14:33:36.986Z,3.47
2023-04-21T14:36:05.244Z,4.35
2023-04-21T14:38:34.000Z,7.85
2023-04-21T14:41:02.022Z,3.13
2023-04-21T14:43:29.660Z,4.15
2023-04-21T14:45:57.603Z,4.22
2023-04-21T14:48:25.494Z,3.50
2023-04-21T14:50:53.438Z,4.70
2023-04-21T14:53:21.341Z,3.67
2023-04-21T14:55:49.315Z,5.43
2023-04-21T14:58:19.649Z,2.38
2023-04-21T15:00:47.187Z,10.35
2023-04-21T15:03:14.962Z,9.52
2023-04-21T15:05:42.662Z,3.38
2023-04-21T15:08:11.781Z,3.65
2023-04-21T15:10:39.837Z,9.75
2023-04-21T15:13:07.460Z,6.72
2023-04-21T15:15:35.527Z,5.68
2023-04-21T15:18:03.286Z,10.88
2023-04-21T15:20:43.868Z,7.18
2023-04-21T15:23:13.442Z,3.30
2023-04-21T15:25:41.649Z,8.30
2023-04-21T15:28:09.859Z,4.70
2023-04-21T15:30:38.032Z,7.03
2023-04-21T15:33:06.107Z,9.02
2023-04-21T15:35:34.178Z,6.82
2023-04-21T15:38:01.390Z,2.60
2023-04-21T15:40:29.652Z,3.83
2023-04-21T15:42:56.856Z,5.78
2023-04-21T15:45:24.716Z,6.80
2023-04-21T15:47:52.111Z,5.57
2023-04-21T15:50:19.751Z,8.38
2023-04-21T15:52:47.647Z,4.88
2023-04-21T15:55:15.637Z,6.53
2023-04-21T15:57:42.938Z,3.58
2023-04-21T16:00:11.254Z,10.77
2023-04-21T16:02:39.418Z,5.70
2023-04-21T16:05:08.135Z,5.97
2023-04-21T16:07:35.927Z,18.58
2023-04-21T16:10:04.188Z,5.03
2023-04-21T16:12:31.470Z,5.22
2023-04-21T16:15:09.353Z,4.68
2023-04-21T16:17:46.754Z,4.68
2023-04-21T16:20:14.936Z,5.70
2023-04-21T16:22:43.500Z,8.63
2023-04-21T16:25:14.002Z,6.05
2023-04-21T16:27:42.649Z,2.85
2023-04-21T16:30:12.650Z,4.97
2023-04-21T16:32:41.178Z,3.67
2023-04-21T16:35:09.985Z,4.80
2023-04-21T16:37:40.459Z,5.97
2023-04-21T16:40:09.414Z,5.53
2023-04-21T16:42:37.479Z,2.70
2023-04-21T16:45:06.796Z,2.40
2023-04-21T16:47:41.067Z,3.38
2023-04-21T16:50:10.655Z,7.28
2023-04-21T16:52:38.407Z,7.55
2023-04-21T16:55:06.654Z,16.48
2023-04-21T16:57:35.145Z,4.13
2023-04-21T17:00:07.243Z,5.35
2023-04-21T17:02:35.549Z,11.25
2023-04-21T17:05:04.213Z,9.57
2023-04-21T17:07:32.118Z,14.75
2023-04-21T17:09:59.816Z,17.35
2023-04-21T17:12:27.951Z,8.95
2023-04-21T17:14:57.901Z,26.30
2023-04-21T17:17:26.304Z,13.77
2023-04-21T17:19:54.524Z,11.70
2023-04-21T17:22:21.875Z,6.97
2023-04-21T17:24:53.852Z,9.73
2023-04-21T17:27:21.748Z,6.78
2023-04-21T17:29:49.375Z,7.00
2023-04-21T17:32:17.245Z,3.80
2023-04-21T17:34:45.678Z,19.33
2023-04-21T17:37:13.900Z,6.47
2023-04-21T17:39:42.378Z,12.60
2023-04-21T17:42:10.621Z,8.48
2023-04-21T17:44:41.246Z,10.20
2023-04-21T17:47:09.730Z,8.85
2023-04-21T17:49:37.846Z,9.52
2023-04-21T17:52:06.592Z,14.50
2023-04-21T17:54:35.433Z,15.73
2023-04-21T17:57:03.885Z,7.47
2023-04-21T17:59:32.103Z,15.30
2023-04-21T18:02:00.742Z,12.90
2023-04-21T18:04:30.929Z,9.90
2023-04-21T18:06:59.206Z,15.98
2023-04-21T18:09:27.214Z,10.32
2023-04-21T18:11:54.690Z,15.20
2023-04-21T18:14:23.138Z,15.68
2023-04-21T18:16:50.715Z,7.55
2023-04-21T18:19:18.608Z,19.02
2023-04-21T18:21:46.464Z,13.50
2023-04-21T18:24:14.731Z,11.77
2023-04-21T18:26:42.584Z,10.80
2023-04-21T18:29:11.130Z,17.73
2023-04-21T18:31:39.362Z,17.48
2023-04-21T18:34:08.855Z,13.77
2023-04-21T18:36:38.380Z,19.83
2023-04-21T18:39:06.501Z,13.15
2023-04-21T18:41:33.792Z,25.27
2023-04-21T18:44:01.559Z,17.75
2023-04-21T18:46:29.374Z,17.00
2023-04-21T18:48:57.392Z,16.42
2023-04-21T18:51:25.275Z,17.15
2023-04-21T18:53:52.784Z,19.98
2023-04-21T18:56:20.121Z,22.88
2023-04-21T18:58:47.617Z,18.45
2023-04-21T19:01:14.957Z,21.75
2023-04-21T19:03:42.926Z,39.30
2023-04-21T19:06:10.720Z,25.02
2023-04-21T19:08:42.540Z,23.10
2023-04-21T19:13:39.533Z,23.65
2023-04-21T19:16:12.438Z,18.52
2023-04-21T19:18:40.499Z,24.08
2023-04-21T19:21:12.697Z,24.40
2023-04-21T19:23:41.668Z,22.27
2023-04-21T19:26:09.769Z,24.00
2023-04-21T19:28:38.354Z,30.85
2023-04-21T19:31:05.746Z,30.52
2023-04-21T19:33:35.623Z,29.02
2023-04-21T19:36:03.479Z,24.80
2023-04-21T19:38:31.174Z,27.00
2023-04-21T19:40:58.445Z,38.00
2023-04-21T19:43:26.175Z,30.38
2023-04-21T19:45:53.963Z,40.50
2023-04-21T19:48:21.832Z,35.05
2023-04-21T19:50:49.390Z,20.50
2023-04-21T19:53:17.254Z,28.42
2023-04-21T19:55:46.404Z,30.00
2023-04-21T19:58:22.082Z,26.95
2023-04-21T20:00:55.845Z,25.77
2023-04-21T20:03:24.031Z,24.35
2023-04-21T20:05:52.078Z,37.47
2023-04-21T20:08:19.812Z,28.55
2023-04-21T20:10:47.087Z,39.35
2023-04-21T20:13:14.669Z,45.83
2023-04-21T20:15:42.677Z,38.53
2023-04-21T20:18:11.845Z,46.15
2023-04-21T20:20:40.687Z,40.85
2023-04-21T20:23:08.190Z,71.22
2023-04-21T20:25:35.734Z,76.93
2023-04-21T20:28:03.402Z,69.15
2023-04-21T20:30:30.665Z,59.05
2023-04-21T20:32:58.364Z,40.65
2023-04-21T20:35:26.407Z,40.28
2023-04-21T20:37:53.975Z,32.75
2023-04-21T20:40:21.717Z,24.30
2023-04-21T20:42:49.392Z,34.58
2023-04-21T20:45:17.411Z,28.73
2023-04-21T20:47:45.021Z,46.42
2023-04-21T20:50:12.702Z,36.72
2023-04-21T20:52:40.519Z,30.83
2023-04-21T20:55:08.092Z,50.00
2023-04-21T20:57:35.762Z,60.63
2023-04-21T21:00:05.911Z,55.13
2023-04-21T21:02:34.236Z,87.03
2023-04-21T21:05:01.702Z,152.35
2023-04-21T21:07:30.857Z,160.40
2023-04-21T21:09:58.163Z,143.20
2023-04-21T21:12:26.001Z,97.97
2023-04-21T21:14:53.977Z,61.15
2023-04-21T21:17:21.800Z,97.40
2023-04-21T21:19:49.509Z,76.72
2023-04-21T21:22:17.420Z,80.20
2023-04-21T21:24:46.536Z,91.28
2023-04-21T21:27:14.297Z,84.22
2023-04-21T21:29:41.746Z,74.50
2023-04-21T21:32:09.326Z,73.22
2023-04-21T21:34:37.054Z,63.25
2023-04-21T21:37:05.139Z,59.55
2023-04-21T21:39:32.651Z,52.90
2023-04-21T21:42:00.790Z,50.70
2023-04-21T21:44:27.982Z,50.95
2023-04-21T21:46:55.843Z,47.70
2023-04-21T21:49:23.114Z,44.83
2023-04-21T21:51:50.826Z,51.45
2023-04-21T21:54:18.217Z,42.50
2023-04-21T21:56:45.676Z,47.90
2023-04-21T21:59:12.962Z,62.10
2023-04-21T22:01:41.308Z,49.95
2023-04-21T22:04:08.688Z,41.85
2023-04-21T22:06:37.229Z,49.75
2023-04-21T22:09:05.128Z,40.40
2023-04-21T22:11:32.697Z,66.40
2023-04-21T22:14:07.988Z,71.05
2023-04-21T22:16:42.926Z,86.57
2023-04-21T22:19:10.564Z,84.50
2023-04-21T22:21:38.213Z,44.28
2023-04-21T22:24:05.783Z,64.75
2023-04-21T22:26:33.916Z,57.90
2023-04-21T22:29:01.160Z,45.90
2023-04-21T22:31:28.940Z,66.20
2023-04-21T22:33:56.671Z,237.70
2023-04-21T22:36:24.280Z,175.07
2023-04-21T22:38:52.326Z,112.78
2023-04-21T22:41:20.968Z,94.97
2023-04-21T22:43:48.619Z,128.32
2023-04-21T22:46:16.143Z,140.15
2023-04-21T22:48:46.366Z,91.15
2023-04-21T22:51:21.047Z,70.70
2023-04-21T22:53:48.365Z,99.43
2023-04-21T22:57:06.212Z,77.53
2023-04-21T22:59:33.518Z,86.68
2023-04-21T23:02:01.075Z,73.47
2023-04-21T23:04:28.290Z,78.55
2023-04-21T23:06:56.235Z,75.55
2023-04-21T23:09:23.726Z,59.38
2023-04-21T23:11:51.399Z,48.38
2023-04-21T23:14:18.855Z,59.53
2023-04-21T23:16:46.342Z,55.00
2023-04-21T23:19:13.576Z,47.00
2023-04-21T23:21:41.101Z,47.05
2023-04-21T23:24:08.314Z,40.28
2023-04-21T23:26:35.824Z,32.35
2023-04-21T23:29:03.214Z,36.83
2023-04-21T23:31:31.707Z,43.92
2023-04-21T23:34:00.179Z,31.70
2023-04-21T23:36:27.786Z,37.92
2023-04-21T23:38:55.011Z,29.90
2023-04-21T23:41:24.797Z,39.22
2023-04-21T23:43:51.988Z,33.97
2023-04-21T23:46:19.457Z,27.13
2023-04-21T23:48:46.585Z,33.83
2023-04-21T23:51:14.113Z,43.15
2023-04-21T23:53:41.315Z,33.58
2023-04-21T23:56:08.774Z,33.47
2023-04-21T23:58:36.771Z,33.13
